Latest Weather Observations for Thredbo Top Station

IDN60901

Issued at 9:21 pm EST Saturday 29 April 2017 (issued every 10 minutes, with the page automatically refreshed every 10 minutes)

About weather observations | Map of Canberra area stations | Latest observations for Canberra area | Other Formats
Station Details ID: 071032 Name: THREDBO AWS Lat: -36.49 Lon: 148.29 Height: 1957.0 m
Data from the previous 72 hours. | See also: Recent months at Thredbo Top Station
Date/Time
EST
Temp
°C
App
Temp
°C
Dew
Point
°C
Rel
Hum
%
Delta-T
°C
Wind Press
QNH
hPa
Press
MSL
hPa
Rain since
9am
mm
Dir  Spd
km/h
Gust
km/h
Spd
kts
Gust
kts
29/09:00pm 3.5 - - - - SW 13 22 7 12 1024.7 1021.5 0.0
29/08:30pm 4.3 - - - - SW 22 30 12 16 1024.5 1021.2 0.0
29/08:00pm 5.4 - - - - SW 24 33 13 18 1024.5 1021.2 0.0
29/07:30pm 3.1 - - - - SSW 11 24 6 13 1024.6 1021.3 0.0
29/07:00pm 2.9 - - - - SW 9 15 5 8 1024.5 1021.2 0.0
29/06:30pm 3.5 - - - - SSW 13 22 7 12 1024.3 1021.1 0.0
29/06:00pm 3.7 - - - - SSW 17 24 9 13 1024.0 1020.7 0.0
29/05:30pm 4.3 - - - - SSW 20 28 11 15 1023.7 1020.5 0.0
29/05:00pm 4.4 - - - - SSW 9 17 5 9 1023.5 1020.2 0.0
29/04:30pm 6.0 - - - - SSW 6 19 3 10 1023.5 1020.2 0.0
29/04:00pm 6.4 - - - - WSW 20 28 11 15 1023.1 1019.8 0.0
29/03:30pm 7.4 - - - - WSW 13 22 7 12 1023.1 1019.8 0.0
29/03:00pm 8.2 - - - - SW 9 17 5 9 1023.3 1019.9 0.0
29/02:30pm 7.9 - - - - SW 20 30 11 16 1022.9 1019.6 0.0
29/02:00pm 8.7 - - - - SW 13 22 7 12 1023.0 1019.7 0.0
29/01:30pm 8.9 - - - - SW 15 22 8 12 1022.9 1019.6 0.0
29/01:00pm 8.8 - - - - WSW 22 32 12 17 1022.9 1019.6 0.0
29/12:30pm 9.5 - - - - SW 26 43 14 23 1023.1 1019.8 0.0
29/12:00pm 9.4 - - - - SW 20 32 11 17 1023.5 1020.2 0.0
29/11:30am 8.8 - - - - SW 24 37 13 20 1023.7 1020.5 0.0
29/11:00am 8.6 - - - - SW 26 46 14 25 1024.0 1020.7 0.0
29/10:30am 7.9 - - - - SW 22 32 12 17 1023.9 1020.6 0.0
29/10:00am 6.7 - - - - SW 22 32 12 17 1024.0 1020.7 0.0
29/09:30am 6.2 - - - - SW 20 30 11 16 1023.9 1020.6 0.0
29/09:00am 5.4 - - - - SW 22 32 12 17 1023.9 1020.6 0.0
29/08:30am 5.0 - - - - SW 19 30 10 16 1023.7 1020.5 0.0
29/08:00am 5.0 - - - - SW 20 30 11 16 1023.5 1020.2 0.0
29/07:30am 5.0 - - - - SW 22 32 12 17 1023.3 1019.9 0.0
29/07:00am 4.7 - - - - SW 26 33 14 18 1022.9 1019.6 0.0
29/06:30am 4.0 - - - - WSW 24 30 13 16 1022.5 1019.2 0.0
29/06:00am 4.3 - - - - WSW 22 32 12 17 1022.3 1018.9 0.0
29/05:30am 4.6 - - - - SW 24 32 13 17 1022.4 1019.1 0.0
29/05:00am 4.5 - - - - SW 20 24 11 13 1022.3 1018.9 0.0
29/04:30am 4.6 - - - - SW 20 24 11 13 1022.3 1018.9 0.0
29/04:00am 5.4 - - - - WSW 19 26 10 14 1022.3 1018.9 0.0
29/03:30am 6.0 - - - - W 17 26 9 14 1022.2 1018.8 0.0
29/03:00am 6.4 - - - - W 22 32 12 17 1021.9 1018.6 0.0
29/02:30am 5.0 - - - - WNW 24 32 13 17 1022.2 1018.8 0.0
29/02:00am 6.2 - - - - W 22 30 12 16 1022.7 1019.3 0.0
29/01:30am 7.1 - - - - W 28 37 15 20 1022.7 1019.3 0.0
29/01:00am 5.6 - - - - W 22 30 12 16 1023.0 1019.7 0.0
29/12:30am 6.6 - - - - W 30 37 16 20 1022.8 1019.4 0.0
29/12:00am 6.1 - - - - WSW 19 28 10 15 1023.3 1019.9 0.0
 
Date/Time
EST
Temp
°C
App
Temp
°C
Dew
Point
°C
Rel
Hum
%
Delta-T
°C
Wind Press
QNH
hPa
Press
MSL
hPa
Rain since
9am
mm
Dir  Spd
km/h
Gust
km/h
Spd
kts
Gust
kts
28/11:30pm 6.5 - - - - WSW 22 33 12 18 1023.5 1020.2 0.0
28/11:00pm 6.4 - - - - WSW 20 26 11 14 1023.7 1020.5 0.0
28/10:30pm 5.9 - - - - WSW 26 32 14 17 1024.1 1020.8 0.0
28/10:00pm 6.7 - - - - WSW 26 33 14 18 1024.0 1020.7 0.0
28/09:30pm 6.5 - - - - WSW 24 32 13 17 1024.1 1020.8 0.0
28/09:00pm 6.9 - - - - WSW 24 35 13 19 1023.9 1020.6 0.0
28/08:30pm 7.1 - - - - W 24 33 13 18 1023.9 1020.6 0.0
28/08:00pm 6.9 - - - - W 26 35 14 19 1023.9 1020.6 0.0
28/07:30pm 7.3 - - - - W 26 33 14 18 1023.9 1020.6 0.0
28/07:00pm 6.0 - - - - W 24 32 13 17 1024.0 1020.7 0.0
28/06:30pm 5.6 - - - - WNW 24 33 13 18 1023.9 1020.6 0.0
28/06:00pm 6.2 - - - - W 22 30 12 16 1023.9 1020.6 0.0
28/05:30pm 6.2 - - - - W 24 32 13 17 1023.5 1020.2 0.0
28/05:00pm 6.4 - - - - W 26 33 14 18 1023.5 1020.2 0.0
28/04:30pm 6.6 - - - - W 22 28 12 15 1023.5 1020.2 0.0
28/04:00pm 6.9 - - - - W 19 26 10 14 1023.6 1020.3 0.0
28/03:30pm 7.4 - - - - WNW 19 24 10 13 1023.7 1020.5 0.0
28/03:00pm 6.9 - - - - W 19 26 10 14 1023.5 1020.2 0.0
28/02:30pm 8.4 - - - - WNW 13 19 7 10 1023.5 1020.2 0.0
28/02:00pm 8.4 - - - - W 11 15 6 8 1023.6 1020.3 0.0
28/01:30pm 7.9 - - - - WSW 13 15 7 8 1023.7 1020.5 0.0
28/01:00pm 7.6 - - - - WSW 17 20 9 11 1023.7 1020.5 0.0
28/12:30pm 7.4 - - - - WSW 17 20 9 11 1024.0 1020.7 0.0
28/12:00pm 6.9 - - - - SW 11 17 6 9 1024.5 1021.2 0.0
28/11:30am 7.0 - - - - SSW 13 19 7 10 1024.6 1021.3 0.0
28/11:00am 7.4 - - - - S 4 7 2 4 1024.6 1021.3 0.0
28/10:30am 5.1 - - - - CALM 0 0 0 0 1024.5 1021.2 0.0
28/10:00am 4.7 - - - - S 4 7 2 4 1024.5 1021.2 0.0
28/09:30am 4.4 - - - - S 9 15 5 8 1024.1 1020.8 0.0
28/09:00am 3.6 - - - - SSE 6 13 3 7 1023.9 1020.6 0.4
28/08:30am 3.2 - - - - SE 6 17 3 9 1023.6 1020.3 0.4
28/08:00am 2.1 - - - - S 11 22 6 12 1023.1 1019.8 0.4
28/07:30am 0.7 - - - - SSW 4 7 2 4 1023.0 1019.7 0.4
28/07:00am -0.2 - - - - WSW 7 15 4 8 1022.8 1019.4 0.4
28/06:30am -1.5 - - - - SW 7 13 4 7 1022.3 1018.9 0.4
28/06:00am -1.0 - - - - S 13 22 7 12 1021.7 1018.3 0.4
28/05:30am -0.4 - - - - S 22 32 12 17 1021.3 1017.9 0.4
28/05:00am -0.9 - - - - SSW 15 32 8 17 1021.1 1017.7 0.4
28/04:30am -1.2 - - - - SSW 13 28 7 15 1021.0 1017.5 0.4
28/04:00am -1.4 - - - - SSW 24 39 13 21 1020.4 1016.9 0.4
28/03:30am -2.2 - - - - SSW 19 30 10 16 1020.5 1017.0 0.4
28/03:00am -2.4 - - - - SSW 15 26 8 14 1020.4 1016.9 0.4
28/02:30am -2.1 - - - - SW 11 22 6 12 1020.5 1017.0 0.4
28/02:00am -1.5 - - - - SSW 19 30 10 16 1020.2 1016.8 0.4
28/01:30am -2.0 - - - - SW 6 15 3 8 1020.5 1017.0 0.4
28/01:00am -2.5 - - - - SW 15 20 8 11 1020.2 1016.8 0.4
28/12:30am -3.1 - - - - SW 15 22 8 12 1020.5 1017.0 0.4
28/12:00am -3.1 - - - - SW 17 22 9 12 1020.5 1017.0 0.4
 
Date/Time
EST
Temp
°C
App
Temp
°C
Dew
Point
°C
Rel
Hum
%
Delta-T
°C
Wind Press
QNH
hPa
Press
MSL
hPa
Rain since
9am
mm
Dir  Spd
km/h
Gust
km/h
Spd
kts
Gust
kts
27/11:30pm -2.6 - - - - WSW 17 22 9 12 1020.1 1016.7 0.4
27/11:00pm -3.0 - - - - SW 17 19 9 10 1020.1 1016.7 0.4
27/10:30pm -3.4 - - - - WSW 17 24 9 13 1020.2 1016.8 0.4
27/10:00pm -3.9 - - - - ENE 2 6 1 3 1020.4 1016.9 0.4
27/09:30pm -3.4 - - - - SW 11 20 6 11 1020.4 1016.9 0.4
27/09:00pm -3.2 - - - - SSW 20 26 11 14 1020.6 1017.2 0.4
27/08:30pm -3.3 - - - - SSW 17 24 9 13 1020.4 1016.9 0.4
27/08:00pm -3.6 - - - - SW 20 28 11 15 1019.9 1016.4 0.4
27/07:30pm -3.7 - - - - SW 13 32 7 17 1019.6 1016.2 0.4
27/07:00pm -3.6 - - - - WSW 15 20 8 11 1019.5 1016.0 0.4
27/06:30pm -2.9 - - - - SW 9 15 5 8 1019.4 1015.9 0.4
27/06:00pm -2.4 - - - - SSW 7 15 4 8 1019.1 1015.7 0.4
27/05:30pm -2.1 - - - - SSW 13 20 7 11 1018.9 1015.4 0.2
27/05:00pm -1.9 - - - - SSW 11 13 6 7 1018.8 1015.3 0.2
27/04:30pm -1.7 - - - - SSW 17 24 9 13 1018.9 1015.4 0.2
27/04:00pm -1.4 - - - - SSW 20 30 11 16 1018.5 1015.0 0.2
27/03:30pm -1.2 - - - - SSW 17 24 9 13 1018.3 1014.8 0.2
27/03:00pm -0.9 - - - - SSW 13 20 7 11 1018.0 1014.5 0.2
27/02:30pm -0.7 - - - - S 13 19 7 10 1017.4 1013.9 0.2
27/02:00pm -0.6 - - - - S 11 17 6 9 1017.4 1013.9 0.2
27/01:30pm -1.2 - - - - S 17 24 9 13 1017.3 1013.8 0.2
27/01:00pm -1.4 - - - - SSW 19 24 10 13 1017.2 1013.6 0.2
27/12:30pm -1.6 - - - - SSW 20 30 11 16 1017.6 1014.0 0.2
27/12:00pm -1.7 - - - - SSW 15 24 8 13 1017.7 1014.1 0.2
27/11:30am -2.2 - - - - SSW 24 33 13 18 1017.7 1014.1 0.2
27/11:00am -2.3 - - - - S 17 22 9 12 1017.9 1014.4 0.2
27/10:30am -2.6 - - - - S 13 28 7 15 1017.7 1014.1 0.2
27/10:00am -2.9 - - - - S 20 37 11 20 1017.1 1013.5 0.2
27/09:32am -3.0 - - - - S 28 48 15 26 1016.1 1012.5 0.2
27/09:30am -3.0 - - - - S 26 41 14 22 1016.4 1012.7 0.2
27/09:00am -3.4 - - - - S 30 46 16 25 1016.0 1012.4 12.6
27/08:45am -3.5 - - - - S 32 52 17 28 1015.6 1012.0 12.6
27/08:30am -3.6 - - - - S 35 48 19 26 1015.6 1012.0 12.6
27/08:13am -3.5 - - - - S 28 46 15 25 1015.3 1011.6 12.6
27/08:00am -3.6 - - - - S 28 39 15 21 1015.0 1011.4 12.6
27/07:32am -3.8 - - - - S 30 48 16 26 1014.7 1011.0 12.6
27/07:30am -3.8 - - - - S 32 48 17 26 1014.5 1010.9 12.6
27/07:18am -4.2 - - - - S 28 46 15 25 - - 12.6
27/07:00am -4.6 - - - - S 20 33 11 18 - - 12.6
27/06:30am -4.8 - - - - S 28 37 15 20 - - 12.6
27/06:00am -4.8 - - - - S 26 41 14 22 - - 12.6
27/05:30am -4.5 - - - - S 30 41 16 22 - - 12.6
27/05:00am -4.7 - - - - S 28 43 15 23 - - 12.6
27/04:30am -5.0 - - - - S 26 35 14 19 - - 12.6
27/04:00am -4.9 - - - - SSW 28 37 15 20 - - 12.6
27/03:30am -4.8 - - - - S 22 30 12 16 - - 12.6
27/03:00am -5.0 - - - - SSW 22 35 12 19 - - 12.6
27/02:30am -5.5 - - - - SSW 17 24 9 13 - - 12.6
27/02:00am -5.4 - - - - SSW 17 24 9 13 - - 12.6
27/01:30am -5.4 - - - - S 19 26 10 14 - - 12.6
27/01:00am -5.5 - - - - SSW 20 30 11 16 - - 12.6
27/12:30am -5.8 - - - - SSW 15 24 8 13 - - 12.6
27/12:00am -5.5 - - - - SW 19 26 10 14 - - 12.6
 
Date/Time
EST
Temp
°C
App
Temp
°C
Dew
Point
°C
Rel
Hum
%
Delta-T
°C
Wind Press
QNH
hPa
Press
MSL
hPa
Rain since
9am
mm
Dir  Spd
km/h
Gust
km/h
Spd
kts
Gust
kts
26/11:30pm -5.4 - - - - SW 22 32 12 17 - - 12.6
26/11:00pm -6.0 - - - - WSW 20 26 11 14 - - 12.6
26/10:30pm -5.5 - - - - SW 24 33 13 18 - - 12.6
26/10:00pm -5.4 - - - - SW 24 35 13 19 - - 12.6
26/09:30pm -4.9 - - - - SW 24 32 13 17 - - 12.6

Latest Capital City Observations: Canberra | Sydney | Melbourne | Brisbane | Adelaide | Perth | Hobart | Darwin

Other Formats:

Comma delimited format used in spreadsheet applications
http://www.bom.gov.au/fwo/IDN60903/IDN60903.95909.axf

JavaScript Object Notation format (JSON) in row-major order
http://www.bom.gov.au/fwo/IDN60903/IDN60903.95909.json